EN479 EGSU-EGKB
Flight info
| Callsign | EN479 |
|---|---|
| Flight time | 0h 52m |
| Altitude | 4000 |
| Route | VFR |
| Aircraft | SPIT/L-GVY/S |
Departure
| Time | 2026-04-22 10:38 |
|---|---|
| Airport | Duxford Aerodrome (EGSU) |
Arrival
| Time | 2026-04-22 11:30 |
|---|---|
| Airport | London Biggin Hill Airport (EGKB) |
| Time | Latitude | Longitude | Altitude | Speed | Heading |
|---|---|---|---|---|---|
| 2026-04-22 10:26 | 52.09256 | 0.12781 | 111 ft | 0 kts | 330° |
| 2026-04-22 10:28 | 52.09255 | 0.12700 | 110 ft | 8 kts | 180° |
| 2026-04-22 10:28 | 52.09209 | 0.12715 | 114 ft | 3 kts | 198° |
| 2026-04-22 10:29 | 52.09167 | 0.12666 | 118 ft | 7 kts | 236° |
| 2026-04-22 10:29 | 52.09091 | 0.12642 | 125 ft | 12 kts | 201° |
| 2026-04-22 10:29 | 52.09001 | 0.12552 | 126 ft | 17 kts | 205° |
| 2026-04-22 10:29 | 52.08902 | 0.12475 | 129 ft | 10 kts | 206° |
| 2026-04-22 10:30 | 52.08859 | 0.12440 | 129 ft | 10 kts | 201° |
| 2026-04-22 10:30 | 52.08804 | 0.12465 | 125 ft | 4 kts | 52° |
| 2026-04-22 10:30 | 52.08817 | 0.12516 | 125 ft | 3 kts | 65° |
| 2026-04-22 10:30 | 52.08822 | 0.12533 | 125 ft | 0 kts | 64° |
| 2026-04-22 10:31 | 52.08845 | 0.12597 | 120 ft | 22 kts | 67° |
| 2026-04-22 10:31 | 52.08929 | 0.12898 | 118 ft | 0 kts | 217° |
| 2026-04-22 10:31 | 52.09256 | 0.12781 | 109 ft | 0 kts | 330° |
| 2026-04-22 10:35 | 52.09256 | 0.12780 | 109 ft | 1 kts | 329° |
| 2026-04-22 10:35 | 52.09240 | 0.12724 | 109 ft | 9 kts | 169° |
| 2026-04-22 10:35 | 52.09172 | 0.12660 | 114 ft | 18 kts | 213° |
| 2026-04-22 10:35 | 52.09064 | 0.12638 | 124 ft | 17 kts | 185° |
| 2026-04-22 10:36 | 52.08944 | 0.12658 | 122 ft | 16 kts | 151° |
| 2026-04-22 10:36 | 52.08928 | 0.12789 | 120 ft | 10 kts | 82° |
| 2026-04-22 10:36 | 52.08961 | 0.12970 | 119 ft | 32 kts | 70° |
| 2026-04-22 10:36 | 52.09046 | 0.13469 | 183 ft | 57 kts | 69° |
| 2026-04-22 10:37 | 52.09316 | 0.14191 | 380 ft | 86 kts | 64° |
| 2026-04-22 10:37 | 52.10105 | 0.16657 | 408 ft | 169 kts | 64° |
| 2026-04-22 10:37 | 52.10683 | 0.18326 | 573 ft | 171 kts | 63° |
| 2026-04-22 10:38 | 52.11238 | 0.19919 | 977 ft | 162 kts | 62° |
| 2026-04-22 10:38 | 52.11780 | 0.21623 | 827 ft | 174 kts | 66° |
| 2026-04-22 10:38 | 52.12294 | 0.23375 | 1043 ft | 168 kts | 69° |
| 2026-04-22 10:38 | 52.12778 | 0.24980 | 1278 ft | 165 kts | 64° |
| 2026-04-22 10:39 | 52.13342 | 0.26600 | 1392 ft | 169 kts | 61° |
| 2026-04-22 10:39 | 52.13938 | 0.28311 | 1471 ft | 174 kts | 65° |
| 2026-04-22 10:39 | 52.14421 | 0.30047 | 1712 ft | 167 kts | 70° |
| 2026-04-22 10:39 | 52.14903 | 0.31750 | 1900 ft | 166 kts | 66° |
| 2026-04-22 10:40 | 52.15457 | 0.33452 | 1924 ft | 172 kts | 67° |
| 2026-04-22 10:40 | 52.15872 | 0.35278 | 2002 ft | 172 kts | 77° |
| 2026-04-22 10:40 | 52.16186 | 0.37127 | 2150 ft | 169 kts | 70° |
| 2026-04-22 10:40 | 52.16673 | 0.38893 | 2246 ft | 170 kts | 64° |
| 2026-04-22 10:41 | 52.17315 | 0.40491 | 2355 ft | 168 kts | 56° |
| 2026-04-22 10:41 | 52.18068 | 0.41986 | 2409 ft | 173 kts | 55° |
| 2026-04-22 10:41 | 52.18777 | 0.43551 | 2465 ft | 169 kts | 59° |
| 2026-04-22 10:41 | 52.19248 | 0.45264 | 2427 ft | 169 kts | 79° |
| 2026-04-22 10:42 | 52.19374 | 0.47177 | 2355 ft | 167 kts | 83° |
| 2026-04-22 10:42 | 52.19494 | 0.49040 | 2409 ft | 164 kts | 85° |
| 2026-04-22 10:42 | 52.19568 | 0.50910 | 2325 ft | 167 kts | 87° |
| 2026-04-22 10:42 | 52.19669 | 0.52801 | 2299 ft | 165 kts | 84° |
| 2026-04-22 10:43 | 52.19860 | 0.54605 | 2387 ft | 160 kts | 77° |
| 2026-04-22 10:43 | 52.20124 | 0.56346 | 2499 ft | 158 kts | 74° |
| 2026-04-22 10:43 | 52.20548 | 0.58031 | 2567 ft | 162 kts | 63° |
| 2026-04-22 10:43 | 52.21108 | 0.59614 | 2693 ft | 160 kts | 62° |
| 2026-04-22 10:44 | 52.21727 | 0.61079 | 2837 ft | 167 kts | 53° |
| 2026-04-22 10:44 | 52.22426 | 0.62522 | 3721 ft | 144 kts | 59° |
| 2026-04-22 10:44 | 52.23041 | 0.63784 | 4495 ft | 148 kts | 56° |
| 2026-04-22 10:44 | 52.23734 | 0.65168 | 4766 ft | 169 kts | 57° |
| 2026-04-22 10:45 | 52.24293 | 0.66791 | 5460 ft | 158 kts | 73° |
| 2026-04-22 10:45 | 52.24571 | 0.68489 | 6132 ft | 155 kts | 81° |
| 2026-04-22 10:45 | 52.24729 | 0.70282 | 6588 ft | 163 kts | 86° |
| 2026-04-22 10:45 | 52.24936 | 0.72111 | 7129 ft | 162 kts | 81° |
| 2026-04-22 10:46 | 52.25193 | 0.73889 | 7676 ft | 165 kts | 79° |
| 2026-04-22 10:46 | 52.25497 | 0.75738 | 8195 ft | 169 kts | 76° |
| 2026-04-22 10:46 | 52.25896 | 0.77526 | 8881 ft | 166 kts | 73° |
| 2026-04-22 10:46 | 52.26333 | 0.79278 | 9509 ft | 168 kts | 72° |
| 2026-04-22 10:47 | 52.26761 | 0.81062 | 10039 ft | 173 kts | 74° |
| 2026-04-22 10:47 | 52.27112 | 0.82933 | 10593 ft | 172 kts | 79° |
| 2026-04-22 10:47 | 52.27360 | 0.84831 | 11120 ft | 171 kts | 84° |
| 2026-04-22 10:47 | 52.27447 | 0.86796 | 11548 ft | 176 kts | 88° |
| 2026-04-22 10:48 | 52.27674 | 0.88770 | 12013 ft | 178 kts | 75° |
| 2026-04-22 10:48 | 52.28080 | 0.90662 | 12557 ft | 175 kts | 71° |
| 2026-04-22 10:48 | 52.28610 | 0.92489 | 12981 ft | 183 kts | 68° |
| 2026-04-22 10:48 | 52.28981 | 0.93742 | 13315 ft | 185 kts | 67° |
| 2026-04-22 10:49 | 52.29683 | 0.95638 | 14056 ft | 198 kts | 58° |
| 2026-04-22 10:49 | 52.30502 | 0.97476 | 14622 ft | 214 kts | 59° |
| 2026-04-22 10:49 | 52.31320 | 0.99539 | 15134 ft | 211 kts | 63° |
| 2026-04-22 10:50 | 52.32058 | 1.01562 | 15835 ft | 205 kts | 63° |
| 2026-04-22 10:50 | 52.32782 | 1.03612 | 16221 ft | 214 kts | 64° |
| 2026-04-22 10:50 | 52.33504 | 1.05828 | 16364 ft | 228 kts | 67° |
| 2026-04-22 10:50 | 52.34109 | 1.08309 | 16389 ft | 241 kts | 69° |
| 2026-04-22 10:51 | 52.34768 | 1.10820 | 16734 ft | 238 kts | 67° |
| 2026-04-22 10:51 | 52.35465 | 1.13342 | 16634 ft | 252 kts | 68° |
| 2026-04-22 10:51 | 52.36147 | 1.16041 | 16617 ft | 257 kts | 68° |
| 2026-04-22 10:51 | 52.36914 | 1.18688 | 16629 ft | 260 kts | 63° |
| 2026-04-22 10:52 | 52.37787 | 1.21277 | 16554 ft | 264 kts | 62° |
| 2026-04-22 10:52 | 52.38665 | 1.23910 | 16660 ft | 261 kts | 63° |
| 2026-04-22 10:52 | 52.39503 | 1.26587 | 16708 ft | 262 kts | 63° |
| 2026-04-22 10:52 | 52.40318 | 1.29248 | 16491 ft | 269 kts | 65° |
| 2026-04-22 10:53 | 52.41109 | 1.32049 | 16462 ft | 268 kts | 65° |
| 2026-04-22 10:53 | 52.41905 | 1.34776 | 16560 ft | 264 kts | 65° |
| 2026-04-22 10:53 | 52.42701 | 1.37535 | 16396 ft | 269 kts | 67° |
| 2026-04-22 10:53 | 52.43300 | 1.40413 | 16410 ft | 266 kts | 74° |
| 2026-04-22 10:54 | 52.43778 | 1.43324 | 16456 ft | 263 kts | 73° |
| 2026-04-22 10:54 | 52.44311 | 1.46192 | 16482 ft | 262 kts | 74° |
| 2026-04-22 10:54 | 52.44665 | 1.49130 | 16413 ft | 265 kts | 82° |
| 2026-04-22 10:54 | 52.44866 | 1.52135 | 16364 ft | 265 kts | 83° |
| 2026-04-22 10:55 | 52.45108 | 1.55112 | 16461 ft | 261 kts | 81° |
| 2026-04-22 10:55 | 52.45401 | 1.58046 | 16505 ft | 261 kts | 78° |
| 2026-04-22 10:55 | 52.45789 | 1.60972 | 16448 ft | 263 kts | 76° |
| 2026-04-22 10:55 | 52.46197 | 1.63908 | 16391 ft | 264 kts | 76° |
| 2026-04-22 10:56 | 52.46618 | 1.66885 | 16013 ft | 273 kts | 78° |
| 2026-04-22 10:56 | 52.46494 | 1.68966 | 15143 ft | 291 kts | 109° |
| 2026-04-22 10:56 | 52.44791 | 1.70904 | 12387 ft | 317 kts | 167° |
| 2026-04-22 10:56 | 52.42807 | 1.71611 | 11785 ft | 266 kts | 155° |
| 2026-04-22 10:57 | 52.41214 | 1.72628 | 11691 ft | 234 kts | 148° |
| 2026-04-22 10:57 | 52.39641 | 1.73713 | 10769 ft | 261 kts | 157° |
| 2026-04-22 10:57 | 52.37838 | 1.74485 | 9429 ft | 277 kts | 161° |
| 2026-04-22 10:57 | 52.35153 | 1.74887 | 8514 ft | 280 kts | 175° |
| 2026-04-22 10:58 | 52.33807 | 1.74773 | 7889 ft | 290 kts | 181° |
| 2026-04-22 10:58 | 52.31823 | 1.74197 | 7436 ft | 288 kts | 188° |
| 2026-04-22 10:58 | 52.29899 | 1.73470 | 7199 ft | 281 kts | 189° |
| 2026-04-22 10:58 | 52.28070 | 1.72390 | 6749 ft | 286 kts | 196° |
| 2026-04-22 10:59 | 52.26200 | 1.71248 | 6254 ft | 287 kts | 196° |
| 2026-04-22 10:59 | 52.24357 | 1.70037 | 5978 ft | 284 kts | 198° |
| 2026-04-22 10:59 | 52.22591 | 1.68634 | 5806 ft | 281 kts | 204° |
| 2026-04-22 10:59 | 52.20852 | 1.67206 | 5564 ft | 278 kts | 200° |
| 2026-04-22 11:00 | 52.19094 | 1.65906 | 5204 ft | 280 kts | 198° |
| 2026-04-22 11:00 | 52.17265 | 1.64733 | 4747 ft | 282 kts | 196° |
| 2026-04-22 11:00 | 52.15494 | 1.63414 | 4638 ft | 278 kts | 203° |
| 2026-04-22 11:00 | 52.13782 | 1.61946 | 4353 ft | 277 kts | 198° |
| 2026-04-22 11:01 | 52.11961 | 1.60903 | 3908 ft | 278 kts | 192° |
| 2026-04-22 11:01 | 52.10191 | 1.59751 | 3715 ft | 277 kts | 203° |
| 2026-04-22 11:01 | 52.08453 | 1.58454 | 3394 ft | 275 kts | 195° |
| 2026-04-22 11:01 | 52.06667 | 1.57274 | 3084 ft | 279 kts | 206° |
| 2026-04-22 11:02 | 52.05156 | 1.55159 | 2526 ft | 291 kts | 223° |
| 2026-04-22 11:02 | 52.03693 | 1.52996 | 2504 ft | 278 kts | 215° |
| 2026-04-22 11:02 | 52.02320 | 1.51198 | 2528 ft | 272 kts | 216° |
| 2026-04-22 11:02 | 52.00890 | 1.49161 | 2271 ft | 276 kts | 218° |
| 2026-04-22 11:03 | 51.99413 | 1.47128 | 2003 ft | 278 kts | 214° |
| 2026-04-22 11:03 | 51.97900 | 1.45353 | 2327 ft | 259 kts | 208° |
| 2026-04-22 11:03 | 51.96380 | 1.43850 | 2275 ft | 265 kts | 208° |
| 2026-04-22 11:03 | 51.94838 | 1.42067 | 1968 ft | 275 kts | 211° |
| 2026-04-22 11:04 | 51.93350 | 1.40365 | 2102 ft | 250 kts | 210° |
| 2026-04-22 11:04 | 51.91914 | 1.38796 | 1776 ft | 251 kts | 207° |
| 2026-04-22 11:04 | 51.90440 | 1.37252 | 1441 ft | 252 kts | 207° |
| 2026-04-22 11:04 | 51.88980 | 1.35802 | 1396 ft | 241 kts | 204° |
| 2026-04-22 11:05 | 51.87474 | 1.34606 | 1159 ft | 242 kts | 197° |
| 2026-04-22 11:05 | 51.85877 | 1.33701 | 826 ft | 243 kts | 190° |
| 2026-04-22 11:05 | 51.84279 | 1.32987 | 812 ft | 233 kts | 187° |
| 2026-04-22 11:05 | 51.82694 | 1.32369 | 537 ft | 239 kts | 190° |
| 2026-04-22 11:06 | 51.81185 | 1.31290 | 672 ft | 231 kts | 205° |
| 2026-04-22 11:06 | 51.80093 | 1.29424 | 804 ft | 235 kts | 236° |
| 2026-04-22 11:06 | 51.79297 | 1.26999 | 613 ft | 254 kts | 238° |
| 2026-04-22 11:06 | 51.78406 | 1.24586 | 909 ft | 245 kts | 235° |
| 2026-04-22 11:07 | 51.77280 | 1.22513 | 870 ft | 250 kts | 210° |
| 2026-04-22 11:07 | 51.75784 | 1.21076 | 1022 ft | 245 kts | 204° |
| 2026-04-22 11:07 | 51.74307 | 1.19953 | 1406 ft | 234 kts | 195° |
| 2026-04-22 11:07 | 51.72738 | 1.19111 | 1314 ft | 242 kts | 186° |
| 2026-04-22 11:08 | 51.71079 | 1.18598 | 1347 ft | 241 kts | 181° |
| 2026-04-22 11:08 | 51.69422 | 1.18321 | 1371 ft | 240 kts | 175° |
| 2026-04-22 11:08 | 51.67736 | 1.18291 | 1311 ft | 240 kts | 171° |
| 2026-04-22 11:08 | 51.66094 | 1.18545 | 1327 ft | 238 kts | 164° |
| 2026-04-22 11:09 | 51.64433 | 1.19043 | 1165 ft | 243 kts | 160° |
| 2026-04-22 11:09 | 51.62827 | 1.19660 | 1407 ft | 235 kts | 165° |
| 2026-04-22 11:09 | 51.61194 | 1.19524 | 1592 ft | 240 kts | 189° |
| 2026-04-22 11:09 | 51.59631 | 1.18336 | 1522 ft | 252 kts | 206° |
| 2026-04-22 11:10 | 51.58147 | 1.16875 | 1708 ft | 250 kts | 209° |
| 2026-04-22 11:10 | 51.56713 | 1.15383 | 1875 ft | 245 kts | 207° |
| 2026-04-22 11:10 | 51.55270 | 1.14007 | 2158 ft | 239 kts | 203° |
| 2026-04-22 11:10 | 51.53746 | 1.12832 | 2075 ft | 247 kts | 197° |
| 2026-04-22 11:11 | 51.52148 | 1.11755 | 2005 ft | 251 kts | 198° |
| 2026-04-22 11:11 | 51.50533 | 1.10666 | 1923 ft | 253 kts | 197° |
| 2026-04-22 11:11 | 51.48883 | 1.09559 | 1739 ft | 258 kts | 197° |
| 2026-04-22 11:11 | 51.47309 | 1.08463 | 1982 ft | 236 kts | 199° |
| 2026-04-22 11:12 | 51.45786 | 1.07407 | 1672 ft | 243 kts | 197° |
| 2026-04-22 11:12 | 51.44209 | 1.06384 | 1459 ft | 243 kts | 196° |
| 2026-04-22 11:12 | 51.42651 | 1.05456 | 1423 ft | 236 kts | 192° |
| 2026-04-22 11:12 | 51.41102 | 1.04692 | 1392 ft | 231 kts | 189° |
| 2026-04-22 11:13 | 51.39550 | 1.04090 | 1283 ft | 231 kts | 185° |
| 2026-04-22 11:13 | 51.37995 | 1.03617 | 1356 ft | 224 kts | 181° |
| 2026-04-22 11:13 | 51.36433 | 1.03257 | 1339 ft | 234 kts | 187° |
| 2026-04-22 11:13 | 51.35029 | 1.01844 | 1438 ft | 245 kts | 218° |
| 2026-04-22 11:14 | 51.33898 | 0.99842 | 1787 ft | 243 kts | 229° |
| 2026-04-22 11:14 | 51.33679 | 0.99377 | 1844 ft | 244 kts | 229° |
| 2026-04-22 11:15 | 51.33172 | 0.98323 | 1952 ft | 246 kts | 231° |
| 2026-04-22 11:15 | 51.32561 | 0.95684 | 1722 ft | 262 kts | 257° |
| 2026-04-22 11:16 | 51.32185 | 0.92958 | 2257 ft | 239 kts | 255° |
| 2026-04-22 11:16 | 51.31784 | 0.90390 | 2440 ft | 242 kts | 254° |
| 2026-04-22 11:16 | 51.31390 | 0.87700 | 2322 ft | 251 kts | 257° |
| 2026-04-22 11:16 | 51.31240 | 0.86652 | 2375 ft | 250 kts | 256° |
| 2026-04-22 11:18 | 51.31134 | 0.85843 | 2475 ft | 249 kts | 257° |
| 2026-04-22 11:19 | 51.30830 | 0.83159 | 2810 ft | 243 kts | 257° |
| 2026-04-22 11:19 | 51.30384 | 0.80548 | 2969 ft | 246 kts | 254° |
| 2026-04-22 11:19 | 51.29998 | 0.77862 | 3039 ft | 250 kts | 257° |
| 2026-04-22 11:19 | 51.29658 | 0.75121 | 3205 ft | 250 kts | 259° |
| 2026-04-22 11:20 | 51.29388 | 0.72462 | 3406 ft | 239 kts | 258° |
| 2026-04-22 11:20 | 51.29103 | 0.69834 | 3306 ft | 246 kts | 260° |
| 2026-04-22 11:20 | 51.28934 | 0.67096 | 3346 ft | 242 kts | 265° |
| 2026-04-22 11:20 | 51.28814 | 0.64446 | 3348 ft | 242 kts | 264° |
| 2026-04-22 11:21 | 51.28678 | 0.61784 | 3303 ft | 242 kts | 269° |
| 2026-04-22 11:21 | 51.28709 | 0.59069 | 3138 ft | 247 kts | 273° |
| 2026-04-22 11:21 | 51.28822 | 0.56348 | 3190 ft | 241 kts | 272° |
| 2026-04-22 11:21 | 51.28895 | 0.53690 | 3027 ft | 246 kts | 282° |
| 2026-04-22 11:22 | 51.29302 | 0.51052 | 3181 ft | 234 kts | 292° |
| 2026-04-22 11:22 | 51.29828 | 0.48678 | 3447 ft | 224 kts | 294° |
| 2026-04-22 11:22 | 51.30420 | 0.46301 | 3242 ft | 237 kts | 297° |
| 2026-04-22 11:22 | 51.31226 | 0.44007 | 3184 ft | 235 kts | 310° |
| 2026-04-22 11:23 | 51.32126 | 0.41878 | 3281 ft | 231 kts | 302° |
| 2026-04-22 11:23 | 51.32927 | 0.39638 | 3182 ft | 236 kts | 307° |
| 2026-04-22 11:23 | 51.33667 | 0.37273 | 3094 ft | 237 kts | 290° |
| 2026-04-22 11:23 | 51.34048 | 0.34744 | 2875 ft | 226 kts | 285° |
| 2026-04-22 11:24 | 51.34178 | 0.32239 | 2678 ft | 226 kts | 265° |
| 2026-04-22 11:24 | 51.33953 | 0.30411 | 2323 ft | 228 kts | 260° |
| 2026-04-22 11:24 | 51.33649 | 0.27938 | 2505 ft | 224 kts | 263° |
| 2026-04-22 11:24 | 51.33469 | 0.25559 | 2232 ft | 189 kts | 266° |
| 2026-04-22 11:25 | 51.33257 | 0.23565 | 1884 ft | 176 kts | 252° |
| 2026-04-22 11:25 | 51.32779 | 0.21711 | 1613 ft | 198 kts | 245° |
| 2026-04-22 11:25 | 51.32167 | 0.19555 | 1571 ft | 225 kts | 247° |
| 2026-04-22 11:25 | 51.31656 | 0.17799 | 1522 ft | 237 kts | 244° |
| 2026-04-22 11:26 | 51.30960 | 0.15287 | 1713 ft | 242 kts | 248° |
| 2026-04-22 11:26 | 51.30453 | 0.12731 | 1906 ft | 240 kts | 259° |
| 2026-04-22 11:26 | 51.30166 | 0.10255 | 1844 ft | 247 kts | 262° |
| 2026-04-22 11:26 | 51.29931 | 0.07574 | 1809 ft | 244 kts | 264° |
| 2026-04-22 11:27 | 51.30087 | 0.05052 | 1467 ft | 231 kts | 294° |
| 2026-04-22 11:27 | 51.30972 | 0.02884 | 1279 ft | 233 kts | 332° |
| 2026-04-22 11:27 | 51.32491 | 0.02697 | 946 ft | 230 kts | 27° |
| 2026-04-22 11:27 | 51.33961 | 0.03609 | 927 ft | 233 kts | 7° |
| 2026-04-22 11:28 | 51.35140 | 0.02145 | 1386 ft | 231 kts | 281° |
| 2026-04-22 11:28 | 51.34473 | 0.00200 | 1440 ft | 187 kts | 203° |
| 2026-04-22 11:28 | 51.33286 | -0.00309 | 1250 ft | 166 kts | 186° |
| 2026-04-22 11:28 | 51.32274 | -0.00661 | 1216 ft | 152 kts | 182° |
| 2026-04-22 11:29 | 51.31350 | -0.00694 | 1156 ft | 113 kts | 137° |
| 2026-04-22 11:29 | 51.31139 | 0.00428 | 1117 ft | 100 kts | 91° |
| 2026-04-22 11:29 | 51.31079 | 0.01512 | 1106 ft | 88 kts | 91° |
| 2026-04-22 11:29 | 51.31523 | 0.02119 | 774 ft | 92 kts | 19° |
| 2026-04-22 11:30 | 51.32097 | 0.02396 | 684 ft | 82 kts | 33° |
| 2026-04-22 11:30 | 51.32597 | 0.02824 | 628 ft | 80 kts | 34° |
| 2026-04-22 11:30 | 51.33070 | 0.03209 | 571 ft | 72 kts | 38° |
| 2026-04-22 11:30 | 51.33442 | 0.03533 | 540 ft | 38 kts | 40° |
| 2026-04-22 11:31 | 51.33492 | 0.03593 | 537 ft | 0 kts | 24° |